createdAt,value
2018-12-31T00:00:12.600Z,2.84
2018-12-31T00:01:12.738Z,2.78
2018-12-31T00:02:13.185Z,2.77
2018-12-31T00:03:12.537Z,2.80
2018-12-31T00:04:12.511Z,2.72
2018-12-31T00:05:12.484Z,2.70
2018-12-31T00:06:12.390Z,2.66
2018-12-31T00:07:12.349Z,2.67
2018-12-31T00:08:12.318Z,2.65
2018-12-31T00:09:13.183Z,2.83
2018-12-31T00:10:12.304Z,2.77
2018-12-31T00:11:12.209Z,2.95
2018-12-31T00:12:12.173Z,3.05
2018-12-31T00:13:12.242Z,3.06
2018-12-31T00:14:12.105Z,3.11
2018-12-31T00:15:12.080Z,3.14
2018-12-31T00:16:12.051Z,3.13
2018-12-31T00:17:12.049Z,3.14
2018-12-31T00:18:11.975Z,3.13
2018-12-31T00:19:11.930Z,3.19
2018-12-31T00:20:11.898Z,3.20
2018-12-31T00:21:11.856Z,3.30
2018-12-31T00:22:11.868Z,3.26
2018-12-31T00:23:12.677Z,3.48
2018-12-31T00:24:11.753Z,3.49
2018-12-31T00:25:12.717Z,3.56
2018-12-31T00:26:11.699Z,3.60
2018-12-31T00:27:11.701Z,3.60
2018-12-31T00:28:12.182Z,3.66
2018-12-31T00:29:11.607Z,3.64
2018-12-31T00:30:11.549Z,3.69
2018-12-31T00:31:11.504Z,3.72
2018-12-31T00:32:11.522Z,3.81
2018-12-31T00:33:11.435Z,3.78
2018-12-31T00:34:11.400Z,3.86
2018-12-31T00:35:11.373Z,3.85
2018-12-31T00:36:11.335Z,3.76
2018-12-31T00:37:11.356Z,3.75
2018-12-31T00:38:11.263Z,3.81
2018-12-31T00:39:11.276Z,3.78
2018-12-31T00:40:11.190Z,3.82
2018-12-31T00:41:11.155Z,3.81
2018-12-31T00:42:11.122Z,3.75
2018-12-31T00:43:11.127Z,3.78
2018-12-31T00:44:11.061Z,3.82
2018-12-31T00:45:11.680Z,3.75
2018-12-31T00:46:11.009Z,3.78
2018-12-31T00:47:11.682Z,3.82
2018-12-31T00:48:10.961Z,3.78
2018-12-31T00:49:10.877Z,3.76
2018-12-31T00:50:10.839Z,3.89
2018-12-31T00:51:10.807Z,3.85
2018-12-31T00:52:10.774Z,3.81
2018-12-31T00:53:11.246Z,3.82
2018-12-31T00:54:10.705Z,3.85
2018-12-31T00:55:10.670Z,3.99
2018-12-31T00:56:10.638Z,3.94
2018-12-31T00:57:10.596Z,3.94
2018-12-31T00:58:10.630Z,4.04
2018-12-31T00:59:10.733Z,4.08
2018-12-31T01:00:10.507Z,4.00
2018-12-31T01:01:10.499Z,4.15
2018-12-31T01:02:10.428Z,4.04
2018-12-31T01:03:11.188Z,4.07
2018-12-31T01:04:10.409Z,4.15
2018-12-31T01:05:10.322Z,4.17
2018-12-31T01:06:10.353Z,4.15
2018-12-31T01:07:11.192Z,4.10
2018-12-31T01:08:11.189Z,4.15
2018-12-31T01:09:10.681Z,4.12
2018-12-31T01:10:10.150Z,4.15
2018-12-31T01:11:10.306Z,4.22
2018-12-31T01:12:10.151Z,4.24
2018-12-31T01:13:10.047Z,4.22
2018-12-31T01:14:10.020Z,4.30
2018-12-31T01:15:09.984Z,4.30
2018-12-31T01:16:09.948Z,4.32
2018-12-31T01:17:09.963Z,4.29
2018-12-31T01:18:09.874Z,4.32
2018-12-31T01:19:09.851Z,4.32
2018-12-31T01:20:09.861Z,4.40
2018-12-31T01:21:09.772Z,4.35
2018-12-31T01:22:10.688Z,4.44
2018-12-31T01:23:09.720Z,4.46
2018-12-31T01:24:09.674Z,4.38
2018-12-31T01:25:09.686Z,4.46
2018-12-31T01:26:09.603Z,4.40
2018-12-31T01:27:10.220Z,4.48
2018-12-31T01:28:10.187Z,4.38
2018-12-31T01:29:09.745Z,4.44
2018-12-31T01:30:09.479Z,4.47
2018-12-31T01:31:10.188Z,4.54
2018-12-31T01:32:09.393Z,4.44
2018-12-31T01:33:09.402Z,4.47
2018-12-31T01:34:09.336Z,4.46
2018-12-31T01:35:10.184Z,4.47
2018-12-31T01:36:09.266Z,4.46
2018-12-31T01:37:09.278Z,4.46
2018-12-31T01:38:09.193Z,4.48
2018-12-31T01:39:09.156Z,4.42
2018-12-31T01:40:09.125Z,4.50
2018-12-31T01:41:09.099Z,4.56
2018-12-31T01:42:09.110Z,4.58
2018-12-31T01:43:09.018Z,4.60
2018-12-31T01:44:08.988Z,4.53
2018-12-31T01:45:08.957Z,4.54
2018-12-31T01:46:08.926Z,4.61
2018-12-31T01:47:08.925Z,4.60
2018-12-31T01:48:08.852Z,4.57
2018-12-31T01:49:08.835Z,4.58
2018-12-31T01:50:08.782Z,4.64
2018-12-31T01:51:11.533Z,4.75
2018-12-31T01:52:08.717Z,4.71
2018-12-31T01:53:08.675Z,4.71
2018-12-31T01:54:08.738Z,4.75
2018-12-31T01:55:08.685Z,4.71
2018-12-31T01:56:08.589Z,4.69
2018-12-31T01:57:08.550Z,4.78
2018-12-31T01:58:08.506Z,4.83
2018-12-31T01:59:08.773Z,4.74
2018-12-31T02:00:08.749Z,4.83
2018-12-31T02:01:08.402Z,4.84
2018-12-31T02:02:08.374Z,4.90
2018-12-31T02:03:09.195Z,4.76
2018-12-31T02:04:09.195Z,4.79
2018-12-31T02:05:08.757Z,4.84
2018-12-31T02:06:09.190Z,4.88
2018-12-31T02:07:08.206Z,4.91
2018-12-31T02:08:08.690Z,4.85
2018-12-31T02:09:08.687Z,4.94
2018-12-31T02:10:08.145Z,4.95
2018-12-31T02:11:08.063Z,4.88
2018-12-31T02:12:08.694Z,4.90
2018-12-31T02:13:08.698Z,4.90
2018-12-31T02:14:08.691Z,4.87
2018-12-31T02:15:07.981Z,4.94
2018-12-31T02:16:07.916Z,4.92
2018-12-31T02:17:07.881Z,4.87
2018-12-31T02:18:08.690Z,5.02
2018-12-31T02:19:07.806Z,5.02
2018-12-31T02:20:08.242Z,5.00
2018-12-31T02:21:07.734Z,5.00
2018-12-31T02:22:08.689Z,5.03
2018-12-31T02:23:07.661Z,5.02
2018-12-31T02:24:08.203Z,4.94
2018-12-31T02:25:07.648Z,4.97
2018-12-31T02:26:07.586Z,4.97
2018-12-31T02:27:08.197Z,5.08
2018-12-31T02:28:07.554Z,5.09
2018-12-31T02:29:07.461Z,5.06
2018-12-31T02:30:07.479Z,5.15
2018-12-31T02:31:08.194Z,5.10
2018-12-31T02:32:08.197Z,5.12
2018-12-31T02:33:07.758Z,5.05
2018-12-31T02:34:07.289Z,5.16
2018-12-31T02:35:07.255Z,5.16
2018-12-31T02:36:07.222Z,5.16
2018-12-31T02:37:07.190Z,5.08
2018-12-31T02:38:07.211Z,5.00
2018-12-31T02:39:07.696Z,5.15
2018-12-31T02:40:07.131Z,5.18
2018-12-31T02:41:07.696Z,5.03
2018-12-31T02:42:07.699Z,5.08
2018-12-31T02:43:06.991Z,5.09
2018-12-31T02:44:07.254Z,5.13
2018-12-31T02:45:06.923Z,5.13
2018-12-31T02:46:07.731Z,5.12
2018-12-31T02:47:07.697Z,5.13
2018-12-31T02:48:07.294Z,5.21
2018-12-31T02:49:07.241Z,5.13
2018-12-31T02:50:07.720Z,5.16
2018-12-31T02:51:07.711Z,5.12
2018-12-31T02:52:07.197Z,5.18
2018-12-31T02:53:06.757Z,5.18
2018-12-31T02:54:06.662Z,5.23
2018-12-31T02:55:07.192Z,5.21
2018-12-31T02:56:07.195Z,5.26
2018-12-31T02:57:07.194Z,5.18
2018-12-31T02:58:06.483Z,5.21
2018-12-31T02:59:06.746Z,5.21
2018-12-31T03:00:06.409Z,5.16
2018-12-31T03:01:06.416Z,5.31
2018-12-31T03:02:07.200Z,5.34
2018-12-31T03:03:06.314Z,5.30
2018-12-31T03:04:06.279Z,5.16
2018-12-31T03:05:07.209Z,5.31
2018-12-31T03:06:06.743Z,5.27
2018-12-31T03:07:06.724Z,5.31
2018-12-31T03:08:06.228Z,5.31
2018-12-31T03:09:06.696Z,5.31
2018-12-31T03:10:06.115Z,5.31
2018-12-31T03:11:06.053Z,5.31
2018-12-31T03:12:06.695Z,5.30
2018-12-31T03:13:05.972Z,5.27
2018-12-31T03:14:05.938Z,5.26
2018-12-31T03:15:05.953Z,5.30
2018-12-31T03:16:06.688Z,5.28
2018-12-31T03:17:06.696Z,5.36
2018-12-31T03:18:06.702Z,5.36
2018-12-31T03:19:05.776Z,5.37
2018-12-31T03:20:06.248Z,5.36
2018-12-31T03:21:06.716Z,5.39
2018-12-31T03:22:06.227Z,5.39
2018-12-31T03:23:05.672Z,5.39
2018-12-31T03:24:06.195Z,5.39
2018-12-31T03:25:05.632Z,5.42
2018-12-31T03:26:06.195Z,5.39
2018-12-31T03:27:06.200Z,5.33
2018-12-31T03:28:05.480Z,5.42
2018-12-31T03:29:06.196Z,5.45
2018-12-31T03:30:05.469Z,5.45
2018-12-31T03:31:05.374Z,5.48
2018-12-31T03:32:06.194Z,5.49
2018-12-31T03:33:05.328Z,5.44
2018-12-31T03:34:05.268Z,5.42
2018-12-31T03:35:05.761Z,5.46
2018-12-31T03:36:05.224Z,5.45
2018-12-31T03:37:05.180Z,5.48
2018-12-31T03:38:05.703Z,5.49
2018-12-31T03:39:05.718Z,5.52
2018-12-31T03:40:05.107Z,5.52
2018-12-31T03:41:05.260Z,5.62
2018-12-31T03:42:05.697Z,5.52
2018-12-31T03:43:05.020Z,5.63
2018-12-31T03:44:05.715Z,5.54
2018-12-31T03:45:05.710Z,5.55
2018-12-31T03:46:05.263Z,5.60
2018-12-31T03:47:04.850Z,5.59
2018-12-31T03:48:04.806Z,5.57
2018-12-31T03:49:05.704Z,5.66
2018-12-31T03:50:05.697Z,5.60
2018-12-31T03:51:04.767Z,5.62
2018-12-31T03:52:05.226Z,5.59
2018-12-31T03:53:04.640Z,5.69
2018-12-31T03:54:05.200Z,5.64
2018-12-31T03:55:05.215Z,5.63
2018-12-31T03:56:04.759Z,5.62
2018-12-31T03:57:05.200Z,5.57
2018-12-31T03:58:05.196Z,5.60
2018-12-31T03:59:05.197Z,5.60
2018-12-31T04:00:04.408Z,5.57
2018-12-31T04:01:04.419Z,5.62
2018-12-31T04:02:05.205Z,5.63
2018-12-31T04:03:04.316Z,5.60
2018-12-31T04:04:04.768Z,5.62
2018-12-31T04:05:04.245Z,5.60
2018-12-31T04:06:05.204Z,5.62
2018-12-31T04:07:04.181Z,5.62
2018-12-31T04:08:04.258Z,5.70
2018-12-31T04:09:04.170Z,5.64
2018-12-31T04:10:04.075Z,5.66
2018-12-31T04:11:04.700Z,5.67
2018-12-31T04:12:04.707Z,5.67
2018-12-31T04:13:03.983Z,5.70
2018-12-31T04:14:03.989Z,5.77
2018-12-31T04:15:04.723Z,5.64
2018-12-31T04:16:04.698Z,5.75
2018-12-31T04:17:03.846Z,5.82
2018-12-31T04:18:03.911Z,5.80
2018-12-31T04:19:04.702Z,5.75
2018-12-31T04:20:04.699Z,5.67
2018-12-31T04:21:04.257Z,5.82
2018-12-31T04:22:03.680Z,5.80
2018-12-31T04:23:03.760Z,5.75
2018-12-31T04:24:03.620Z,5.81
2018-12-31T04:25:03.584Z,5.77
2018-12-31T04:26:03.586Z,5.80
2018-12-31T04:27:03.601Z,5.78
2018-12-31T04:28:04.209Z,5.78
2018-12-31T04:29:03.509Z,5.78
2018-12-31T04:30:03.425Z,5.85
2018-12-31T04:31:03.391Z,5.77
2018-12-31T04:32:04.207Z,5.77
2018-12-31T04:33:04.211Z,5.80
2018-12-31T04:34:03.772Z,5.78
2018-12-31T04:35:03.767Z,5.77
2018-12-31T04:36:03.754Z,5.84
2018-12-31T04:37:03.716Z,5.81
2018-12-31T04:38:03.706Z,5.80
2018-12-31T04:39:03.705Z,5.78
2018-12-31T04:40:03.700Z,5.84
2018-12-31T04:41:03.107Z,5.87
2018-12-31T04:42:03.704Z,5.78
2018-12-31T04:43:02.994Z,5.75
2018-12-31T04:44:03.704Z,5.78
2018-12-31T04:45:02.928Z,5.87
2018-12-31T04:46:03.272Z,5.82
2018-12-31T04:47:03.718Z,5.84
2018-12-31T04:48:02.844Z,5.82
2018-12-31T04:49:03.707Z,5.99
2018-12-31T04:50:02.764Z,5.95
2018-12-31T04:51:02.779Z,5.91
2018-12-31T04:52:02.800Z,5.88
2018-12-31T04:53:03.206Z,5.95
2018-12-31T04:54:03.208Z,5.95
2018-12-31T04:55:02.604Z,5.92
2018-12-31T04:56:02.609Z,5.98
2018-12-31T04:57:02.597Z,5.89
2018-12-31T04:58:02.502Z,5.96
2018-12-31T04:59:03.205Z,5.96
2018-12-31T05:00:02.441Z,5.92
2018-12-31T05:01:02.412Z,6.02
2018-12-31T05:02:03.343Z,6.00
2018-12-31T05:03:02.344Z,5.92
2018-12-31T05:04:02.312Z,5.96
2018-12-31T05:05:03.210Z,5.88
2018-12-31T05:06:02.270Z,5.95
2018-12-31T05:07:02.210Z,5.87
2018-12-31T05:08:02.234Z,5.92
2018-12-31T05:09:02.222Z,5.89
2018-12-31T05:10:02.110Z,5.88
2018-12-31T05:11:02.707Z,5.89
2018-12-31T05:12:02.045Z,5.87
2018-12-31T05:13:02.053Z,5.85
2018-12-31T05:14:01.983Z,5.85
2018-12-31T05:15:01.961Z,5.77
2018-12-31T05:16:01.962Z,5.85
2018-12-31T05:17:02.712Z,5.82
2018-12-31T05:18:02.263Z,5.89
2018-12-31T05:19:01.827Z,5.81
2018-12-31T05:20:01.831Z,5.87
2018-12-31T05:21:02.709Z,5.84
2018-12-31T05:22:02.710Z,5.92
2018-12-31T05:23:01.807Z,5.98
2018-12-31T05:24:02.211Z,5.98
2018-12-31T05:25:01.765Z,5.98
2018-12-31T05:26:01.587Z,5.89
2018-12-31T05:27:01.561Z,5.92
2018-12-31T05:28:01.521Z,5.99
2018-12-31T05:29:01.494Z,6.00
2018-12-31T05:30:01.503Z,6.03
2018-12-31T05:31:01.427Z,6.02
2018-12-31T05:32:01.396Z,6.06
2018-12-31T05:33:01.364Z,6.07
2018-12-31T05:34:02.211Z,6.07
2018-12-31T05:35:01.777Z,6.09
2018-12-31T05:36:02.210Z,6.06
2018-12-31T05:37:02.213Z,6.09
2018-12-31T05:38:01.196Z,6.07
2018-12-31T05:39:01.208Z,6.03
2018-12-31T05:40:01.150Z,6.15
2018-12-31T05:41:01.143Z,6.09
2018-12-31T05:42:01.070Z,6.21
2018-12-31T05:43:01.032Z,6.14
2018-12-31T05:44:01.007Z,6.06
2018-12-31T05:45:01.030Z,6.13
2018-12-31T05:46:00.947Z,6.09
2018-12-31T05:47:00.904Z,6.20
2018-12-31T05:48:01.716Z,6.25
2018-12-31T05:49:00.843Z,6.25
2018-12-31T05:50:01.767Z,6.25
2018-12-31T05:51:00.780Z,6.18
2018-12-31T05:52:01.266Z,6.24
2018-12-31T05:53:00.755Z,6.21
2018-12-31T05:54:01.212Z,6.13
2018-12-31T05:55:00.644Z,6.07
2018-12-31T05:56:01.219Z,6.15
2018-12-31T05:57:00.627Z,6.20
2018-12-31T05:58:00.591Z,6.24
2018-12-31T05:59:01.220Z,6.15
2018-12-31T06:00:00.484Z,6.15
2018-12-31T06:01:00.447Z,6.24
2018-12-31T06:02:01.217Z,6.14
2018-12-31T06:03:01.218Z,6.09
2018-12-31T06:04:00.401Z,6.07
2018-12-31T06:05:00.772Z,6.20
2018-12-31T06:06:00.328Z,6.24
2018-12-31T06:07:01.216Z,6.20
2018-12-31T06:08:00.243Z,6.26
2018-12-31T06:09:00.222Z,6.18
2018-12-31T06:10:00.173Z,6.20
2018-12-31T06:11:00.162Z,6.18
2018-12-31T06:12:00.716Z,6.24
2018-12-31T06:13:00.065Z,6.20
2018-12-31T06:14:00.714Z,6.29
2018-12-31T06:15:00.268Z,6.20
2018-12-31T06:15:59.966Z,6.24
2018-12-31T06:17:00.624Z,6.21
2018-12-31T06:17:59.893Z,6.20
2018-12-31T06:18:59.864Z,6.25
2018-12-31T06:19:59.831Z,6.20
2018-12-31T06:20:59.808Z,6.15
2018-12-31T06:21:59.803Z,6.14
2018-12-31T06:22:59.775Z,6.21
2018-12-31T06:23:59.699Z,6.20
2018-12-31T06:24:59.781Z,6.20
2018-12-31T06:25:59.651Z,6.21
2018-12-31T06:26:59.601Z,6.18
2018-12-31T06:27:59.576Z,6.24
2018-12-31T06:28:59.534Z,6.25
2018-12-31T06:29:59.544Z,6.29
2018-12-31T06:30:59.489Z,6.20
2018-12-31T06:31:59.484Z,6.15
2018-12-31T06:32:59.769Z,6.24
2018-12-31T06:33:59.385Z,6.20
2018-12-31T06:34:59.349Z,6.28
2018-12-31T06:36:00.218Z,6.28
2018-12-31T06:36:59.281Z,6.17
2018-12-31T06:37:59.284Z,6.31
2018-12-31T06:38:59.213Z,6.28
2018-12-31T06:39:59.718Z,6.24
2018-12-31T06:40:59.720Z,6.20
2018-12-31T06:41:59.715Z,6.24
2018-12-31T06:42:59.123Z,6.20
2018-12-31T06:43:59.716Z,6.29
2018-12-31T06:44:59.730Z,6.25
2018-12-31T06:45:59.720Z,6.24
2018-12-31T06:46:59.719Z,6.29
2018-12-31T06:47:59.269Z,6.21
2018-12-31T06:48:58.920Z,6.20
2018-12-31T06:49:59.723Z,6.20
2018-12-31T06:50:59.726Z,6.26
2018-12-31T06:51:59.723Z,6.29
2018-12-31T06:52:59.776Z,6.29
2018-12-31T06:53:59.718Z,6.29
2018-12-31T06:54:58.693Z,6.36
2018-12-31T06:55:59.219Z,6.29
2018-12-31T06:56:58.625Z,6.26
2018-12-31T06:57:58.658Z,6.26
2018-12-31T06:58:58.565Z,6.31
2018-12-31T06:59:58.529Z,6.24
2018-12-31T07:00:59.223Z,6.26
2018-12-31T07:01:58.494Z,6.28
2018-12-31T07:02:58.474Z,6.29
2018-12-31T07:03:58.399Z,6.39
2018-12-31T07:04:58.412Z,6.34
2018-12-31T07:05:59.223Z,6.39
2018-12-31T07:06:59.237Z,6.37
2018-12-31T07:07:58.278Z,6.46
2018-12-31T07:08:59.243Z,6.37
2018-12-31T07:09:58.250Z,6.46
2018-12-31T07:10:58.721Z,6.44
2018-12-31T07:11:58.139Z,6.40
2018-12-31T07:12:58.719Z,6.49
2018-12-31T07:13:58.074Z,6.49
2018-12-31T07:14:58.088Z,6.44
2018-12-31T07:15:58.726Z,6.33
2018-12-31T07:16:58.005Z,6.52
2018-12-31T07:17:58.722Z,6.44
2018-12-31T07:18:57.961Z,6.43
2018-12-31T07:19:58.770Z,6.42
2018-12-31T07:20:57.890Z,6.42
2018-12-31T07:21:58.719Z,6.46
2018-12-31T07:22:57.785Z,6.49
2018-12-31T07:23:57.744Z,6.42
2018-12-31T07:24:57.760Z,6.46
2018-12-31T07:25:57.710Z,6.42
2018-12-31T07:26:58.637Z,6.51
2018-12-31T07:27:57.618Z,6.47
2018-12-31T07:28:57.580Z,6.47
2018-12-31T07:29:57.559Z,6.43
2018-12-31T07:30:57.520Z,6.44
2018-12-31T07:31:57.536Z,6.43
2018-12-31T07:32:57.455Z,6.43
2018-12-31T07:33:59.133Z,6.44
2018-12-31T07:34:57.411Z,6.51
2018-12-31T07:35:57.363Z,6.42
2018-12-31T07:36:57.788Z,6.44
2018-12-31T07:37:57.295Z,6.52
2018-12-31T07:38:57.274Z,6.49
2018-12-31T07:39:57.226Z,6.47
2018-12-31T07:40:57.726Z,6.49
2018-12-31T07:41:57.209Z,6.43
2018-12-31T07:42:57.181Z,6.47
2018-12-31T07:43:57.096Z,6.49
2018-12-31T07:44:57.064Z,6.55
2018-12-31T07:45:57.035Z,6.49
2018-12-31T07:46:56.997Z,6.52
2018-12-31T07:47:57.025Z,6.46
2018-12-31T07:48:56.937Z,6.54
2018-12-31T07:49:56.896Z,6.52
2018-12-31T07:50:56.868Z,6.51
2018-12-31T07:51:56.838Z,6.55
2018-12-31T07:52:56.851Z,6.62
2018-12-31T07:53:56.823Z,6.65
2018-12-31T07:54:56.739Z,6.73
2018-12-31T07:55:56.702Z,6.67
2018-12-31T07:56:56.675Z,6.64
2018-12-31T07:57:56.639Z,6.68
2018-12-31T07:58:56.655Z,6.70
2018-12-31T07:59:56.578Z,6.67
2018-12-31T08:00:56.544Z,6.68
2018-12-31T08:01:56.508Z,6.65
2018-12-31T08:02:56.473Z,6.75
2018-12-31T08:03:56.487Z,6.75
2018-12-31T08:04:56.412Z,6.75
2018-12-31T08:05:56.383Z,6.79
2018-12-31T08:06:56.350Z,6.78
2018-12-31T08:07:56.317Z,6.85
2018-12-31T08:08:56.342Z,6.85
2018-12-31T08:09:56.259Z,6.80
2018-12-31T08:10:56.221Z,6.82
2018-12-31T08:11:56.186Z,6.86
2018-12-31T08:12:56.152Z,6.82
2018-12-31T08:13:56.167Z,6.86
2018-12-31T08:14:56.089Z,6.83
2018-12-31T08:15:56.060Z,6.86
2018-12-31T08:16:56.025Z,6.86
2018-12-31T08:17:55.989Z,6.86
2018-12-31T08:18:56.020Z,6.91
2018-12-31T08:19:55.923Z,6.93
2018-12-31T08:20:55.945Z,6.98
2018-12-31T08:21:55.868Z,7.00
2018-12-31T08:22:55.837Z,7.00
2018-12-31T08:23:55.805Z,6.95
2018-12-31T08:24:55.781Z,6.95
2018-12-31T08:25:55.785Z,6.95
2018-12-31T08:26:55.707Z,6.94
2018-12-31T08:27:55.674Z,6.98
2018-12-31T08:28:55.680Z,6.98
2018-12-31T08:29:55.674Z,7.04
2018-12-31T08:30:55.573Z,7.09
2018-12-31T08:31:55.547Z,7.15
2018-12-31T08:32:55.583Z,7.15
2018-12-31T08:33:55.485Z,7.15
2018-12-31T08:34:55.445Z,7.19
2018-12-31T08:35:56.144Z,7.16
2018-12-31T08:36:55.429Z,7.21
2018-12-31T08:37:55.347Z,7.16
2018-12-31T08:38:55.333Z,7.13
2018-12-31T08:39:55.334Z,7.16
2018-12-31T08:40:55.251Z,7.13
2018-12-31T08:41:55.221Z,7.23
2018-12-31T08:42:55.196Z,7.26
2018-12-31T08:43:55.157Z,7.22
2018-12-31T08:44:55.179Z,7.29
2018-12-31T08:45:55.101Z,7.30
2018-12-31T08:46:55.062Z,7.37
2018-12-31T08:47:55.080Z,7.39
2018-12-31T08:48:55.048Z,7.44
2018-12-31T08:49:54.969Z,7.44
2018-12-31T08:50:54.983Z,7.44
2018-12-31T08:51:54.902Z,7.36
2018-12-31T08:52:54.870Z,7.41
2018-12-31T08:53:54.845Z,7.51
2018-12-31T08:54:54.848Z,7.51
2018-12-31T08:55:54.790Z,7.48
2018-12-31T08:56:54.752Z,7.56
2018-12-31T08:57:54.763Z,7.67
2018-12-31T08:58:54.723Z,7.68
2018-12-31T08:59:54.687Z,7.75
2018-12-31T09:00:54.618Z,7.80
2018-12-31T09:01:55.245Z,7.78
2018-12-31T09:02:54.610Z,7.74
2018-12-31T09:03:54.530Z,7.78
2018-12-31T09:04:54.500Z,7.75
2018-12-31T09:05:54.502Z,7.75
2018-12-31T09:06:54.426Z,7.78
2018-12-31T09:07:54.407Z,7.82
2018-12-31T09:08:54.388Z,7.75
2018-12-31T09:09:54.381Z,7.77
2018-12-31T09:10:54.442Z,7.83
2018-12-31T09:11:54.271Z,7.82
2018-12-31T09:12:54.243Z,7.89
2018-12-31T09:13:54.207Z,7.88
2018-12-31T09:14:54.174Z,7.89
2018-12-31T09:15:54.192Z,7.95
2018-12-31T09:16:54.115Z,7.88
2018-12-31T09:17:54.102Z,7.88
2018-12-31T09:18:54.049Z,7.98
2018-12-31T09:19:54.028Z,8.03
2018-12-31T09:20:54.132Z,8.01
2018-12-31T09:21:53.957Z,7.95
2018-12-31T09:22:53.921Z,7.89
2018-12-31T09:23:53.889Z,7.93
2018-12-31T09:24:53.861Z,8.04
2018-12-31T09:25:54.290Z,8.06
2018-12-31T09:26:53.795Z,7.98
2018-12-31T09:27:53.830Z,7.99
2018-12-31T09:28:53.737Z,7.99
2018-12-31T09:29:53.705Z,7.96
2018-12-31T09:30:53.673Z,7.93
2018-12-31T09:31:53.648Z,7.98
2018-12-31T09:32:53.654Z,7.93
2018-12-31T09:33:53.592Z,7.99
2018-12-31T09:34:53.548Z,7.96
2018-12-31T09:35:53.563Z,7.92
2018-12-31T09:36:53.483Z,8.03
2018-12-31T09:37:53.456Z,8.14
2018-12-31T09:38:53.423Z,8.17
2018-12-31T09:39:53.392Z,8.26
2018-12-31T09:40:53.417Z,8.14
2018-12-31T09:41:53.499Z,8.14
2018-12-31T09:42:53.300Z,8.22
2018-12-31T09:43:53.270Z,8.25
2018-12-31T09:44:53.282Z,8.31
2018-12-31T09:45:53.258Z,8.32
2018-12-31T09:46:53.191Z,8.34
2018-12-31T09:47:53.148Z,8.34
2018-12-31T09:48:53.650Z,8.31
2018-12-31T09:49:53.085Z,8.32
2018-12-31T09:50:53.111Z,8.31
2018-12-31T09:51:53.027Z,8.29
2018-12-31T09:52:52.989Z,8.36
2018-12-31T09:53:52.961Z,8.26
2018-12-31T09:54:52.941Z,8.25
2018-12-31T09:55:52.974Z,8.34
2018-12-31T09:56:52.924Z,8.32
2018-12-31T09:57:52.833Z,8.31
2018-12-31T09:58:52.813Z,8.24
2018-12-31T09:59:53.651Z,8.21
2018-12-31T10:00:52.747Z,8.25
2018-12-31T10:01:52.758Z,8.24
2018-12-31T10:02:52.678Z,8.21
2018-12-31T10:03:52.657Z,8.31
2018-12-31T10:04:52.618Z,8.34
2018-12-31T10:05:52.586Z,8.32
2018-12-31T10:06:52.608Z,8.40
2018-12-31T10:07:52.570Z,8.34
2018-12-31T10:08:52.492Z,8.40
2018-12-31T10:09:52.465Z,8.52
2018-12-31T10:10:54.310Z,8.47
2018-12-31T10:11:52.462Z,8.58
2018-12-31T10:12:52.379Z,8.49
2018-12-31T10:13:52.416Z,8.52
2018-12-31T10:14:52.309Z,8.47
2018-12-31T10:15:52.288Z,8.52
2018-12-31T10:16:52.297Z,8.50
2018-12-31T10:17:52.227Z,8.53
2018-12-31T10:18:52.224Z,8.58
2018-12-31T10:19:52.156Z,8.67
2018-12-31T10:20:52.142Z,8.64
2018-12-31T10:21:52.092Z,8.68
2018-12-31T10:22:52.107Z,8.67
2018-12-31T10:23:52.036Z,8.67
2018-12-31T10:24:52.002Z,8.64
2018-12-31T10:25:52.009Z,8.67
2018-12-31T10:26:51.940Z,8.65
2018-12-31T10:27:51.915Z,8.69
2018-12-31T10:28:51.925Z,8.77
2018-12-31T10:29:51.855Z,8.64
2018-12-31T10:30:51.887Z,8.77
2018-12-31T10:31:51.787Z,8.85
2018-12-31T10:32:53.051Z,8.74
2018-12-31T10:33:51.817Z,8.77
2018-12-31T10:34:51.755Z,8.68
2018-12-31T10:35:51.663Z,8.64
2018-12-31T10:36:51.658Z,8.68
2018-12-31T10:37:51.604Z,8.64
2018-12-31T10:38:51.579Z,8.68
2018-12-31T10:39:51.592Z,8.64
2018-12-31T10:40:51.514Z,8.80
2018-12-31T10:41:51.482Z,8.76
2018-12-31T10:42:51.449Z,8.74
2018-12-31T10:43:51.426Z,8.74
2018-12-31T10:44:51.435Z,8.89
2018-12-31T10:45:53.216Z,8.98
2018-12-31T10:46:51.333Z,8.92
2018-12-31T10:47:51.338Z,8.89
2018-12-31T10:48:51.265Z,8.89
2018-12-31T10:49:51.234Z,8.87
2018-12-31T10:50:51.251Z,8.98
2018-12-31T10:51:51.175Z,8.98
2018-12-31T10:52:51.166Z,9.03
2018-12-31T10:53:51.114Z,8.94
2018-12-31T10:54:51.169Z,8.92
2018-12-31T10:55:51.090Z,8.90
2018-12-31T10:56:51.058Z,8.74
2018-12-31T10:57:51.010Z,8.82
2018-12-31T10:58:50.962Z,8.68
2018-12-31T10:59:50.934Z,8.64
2018-12-31T11:00:50.967Z,8.60
2018-12-31T11:01:50.911Z,8.54
2018-12-31T11:02:50.854Z,8.60
2018-12-31T11:03:50.831Z,8.64
2018-12-31T11:04:50.783Z,8.72
2018-12-31T11:05:50.744Z,8.67
2018-12-31T11:06:50.781Z,8.80
2018-12-31T11:07:51.257Z,8.71
2018-12-31T11:08:50.665Z,8.72
2018-12-31T11:09:50.630Z,8.77
2018-12-31T11:10:50.593Z,8.80
2018-12-31T11:11:50.610Z,8.94
2018-12-31T11:12:50.540Z,8.82
2018-12-31T11:13:50.557Z,8.90
2018-12-31T11:14:50.488Z,8.90
2018-12-31T11:15:50.447Z,8.92
2018-12-31T11:16:50.409Z,8.89
2018-12-31T11:17:51.791Z,8.87
2018-12-31T11:18:50.401Z,9.03
2018-12-31T11:19:50.323Z,9.03
2018-12-31T11:20:50.282Z,9.14
2018-12-31T11:21:50.258Z,9.27
2018-12-31T11:22:50.226Z,9.38
2018-12-31T11:23:50.235Z,9.50
2018-12-31T11:24:50.165Z,9.52
2018-12-31T11:25:50.178Z,9.50
2018-12-31T11:26:50.130Z,9.50
2018-12-31T11:27:50.078Z,9.52
2018-12-31T11:28:50.087Z,9.45
2018-12-31T11:29:50.073Z,9.42
2018-12-31T11:30:51.666Z,9.30
2018-12-31T11:31:49.949Z,9.34
2018-12-31T11:32:49.930Z,9.35
2018-12-31T11:33:49.892Z,9.37
2018-12-31T11:34:49.937Z,9.16
2018-12-31T11:35:49.826Z,9.14
2018-12-31T11:36:49.893Z,9.01
2018-12-31T11:37:49.771Z,9.03
2018-12-31T11:38:49.745Z,8.98
2018-12-31T11:39:49.752Z,8.97
2018-12-31T11:40:49.719Z,8.85
2018-12-31T11:41:49.650Z,8.83
2018-12-31T11:42:49.634Z,8.85
2018-12-31T11:43:49.717Z,8.89
2018-12-31T11:44:49.551Z,8.98
2018-12-31T11:45:49.543Z,9.01
2018-12-31T11:46:49.505Z,9.04
2018-12-31T11:47:49.463Z,9.04
2018-12-31T11:48:49.501Z,9.05
2018-12-31T11:49:49.403Z,9.01
2018-12-31T11:50:49.371Z,9.04
2018-12-31T11:51:49.343Z,9.08
2018-12-31T11:52:49.367Z,9.08
2018-12-31T11:53:49.300Z,9.09
2018-12-31T11:54:49.295Z,9.14
2018-12-31T11:55:49.230Z,9.17
2018-12-31T11:56:49.185Z,9.16
2018-12-31T11:57:49.154Z,9.12
2018-12-31T11:58:49.128Z,9.16
2018-12-31T11:59:49.148Z,9.19
2018-12-31T12:00:49.066Z,9.12
2018-12-31T12:01:49.078Z,9.05
2018-12-31T12:02:49.012Z,8.94
2018-12-31T12:03:49.021Z,8.97
2018-12-31T12:04:48.948Z,9.00
2018-12-31T12:05:48.926Z,8.98
2018-12-31T12:06:48.937Z,9.01
2018-12-31T12:07:48.857Z,9.05
2018-12-31T12:08:49.721Z,9.04
2018-12-31T12:09:48.797Z,9.11
2018-12-31T12:10:48.766Z,9.04
2018-12-31T12:11:48.788Z,9.16
2018-12-31T12:12:48.698Z,9.21
2018-12-31T12:13:48.670Z,9.21
2018-12-31T12:14:48.640Z,9.23
2018-12-31T12:15:48.606Z,9.32
2018-12-31T12:16:48.631Z,9.35
2018-12-31T12:17:48.551Z,9.42
2018-12-31T12:18:48.523Z,9.39
2018-12-31T12:19:48.486Z,9.41
2018-12-31T12:20:48.527Z,9.52
2018-12-31T12:21:48.425Z,9.52
2018-12-31T12:22:48.391Z,9.35
2018-12-31T12:23:48.377Z,9.38
2018-12-31T12:24:48.328Z,9.30
2018-12-31T12:25:48.345Z,9.23
2018-12-31T12:26:48.273Z,9.19
2018-12-31T12:27:48.238Z,9.12
2018-12-31T12:28:48.248Z,9.23
2018-12-31T12:29:48.765Z,9.21
2018-12-31T12:30:48.205Z,9.23
2018-12-31T12:31:48.123Z,9.30
2018-12-31T12:32:48.092Z,9.35
2018-12-31T12:33:48.117Z,9.41
2018-12-31T12:34:48.032Z,9.35
2018-12-31T12:35:47.998Z,9.53
2018-12-31T12:36:47.978Z,9.55
2018-12-31T12:37:48.600Z,9.62
2018-12-31T12:38:47.912Z,9.59
2018-12-31T12:39:47.882Z,9.56
2018-12-31T12:40:47.844Z,9.64
2018-12-31T12:41:47.813Z,9.77
2018-12-31T12:42:47.838Z,9.80
2018-12-31T12:43:47.761Z,9.84
2018-12-31T12:44:47.733Z,9.84
2018-12-31T12:45:47.693Z,9.90
2018-12-31T12:46:48.369Z,9.93
2018-12-31T12:47:47.697Z,9.93
2018-12-31T12:48:47.619Z,9.95
2018-12-31T12:49:47.577Z,9.89
2018-12-31T12:50:47.551Z,9.82
2018-12-31T12:51:47.538Z,9.82
2018-12-31T12:52:47.525Z,9.77
2018-12-31T12:53:47.542Z,9.66
2018-12-31T12:54:47.437Z,9.71
2018-12-31T12:55:47.401Z,9.75
2018-12-31T12:56:47.368Z,9.60
2018-12-31T12:57:47.334Z,9.57
2018-12-31T12:58:47.348Z,9.56
2018-12-31T12:59:47.276Z,9.52
2018-12-31T13:00:47.242Z,9.48
2018-12-31T13:01:47.219Z,9.52
2018-12-31T13:02:47.189Z,9.57
2018-12-31T13:03:47.205Z,9.63
2018-12-31T13:04:47.125Z,9.60
2018-12-31T13:05:47.156Z,9.71
2018-12-31T13:06:47.067Z,9.74
2018-12-31T13:07:47.044Z,9.70
2018-12-31T13:08:47.005Z,9.81
2018-12-31T13:09:46.983Z,9.80
2018-12-31T13:10:46.993Z,9.82
2018-12-31T13:11:46.918Z,9.80
2018-12-31T13:12:46.892Z,9.89
2018-12-31T13:13:46.896Z,9.93
2018-12-31T13:14:46.869Z,9.99
2018-12-31T13:15:46.795Z,9.96
2018-12-31T13:16:46.779Z,9.93
2018-12-31T13:17:46.739Z,9.90